createdAt,value
2022-10-12T00:00:14.524Z,0.25
2022-10-12T00:01:19.032Z,0.22
2022-10-12T00:02:23.370Z,0.20
2022-10-12T00:03:26.320Z,0.19
2022-10-12T00:04:30.322Z,0.18
2022-10-12T00:05:33.264Z,0.14
2022-10-12T00:06:37.189Z,0.14
2022-10-12T00:07:40.487Z,0.13
2022-10-12T00:08:45.483Z,0.10
2022-10-12T00:09:48.465Z,0.10
2022-10-12T00:10:52.480Z,0.07
2022-10-12T00:11:56.864Z,0.06
2022-10-12T00:13:01.097Z,0.05
2022-10-12T00:14:04.414Z,0.03
2022-10-12T00:15:09.145Z,0.02
2022-10-12T00:16:13.364Z,0.01
2022-10-12T00:17:17.450Z,0.00
2022-10-12T00:18:20.493Z,-0.02
2022-10-12T00:19:24.437Z,-0.03
2022-10-12T00:20:27.383Z,-0.05
2022-10-12T00:21:32.057Z,-0.07
2022-10-12T00:22:34.994Z,-0.09
2022-10-12T00:23:39.571Z,-0.10
2022-10-12T00:24:43.047Z,-0.09
2022-10-12T00:25:47.165Z,-0.09
2022-10-12T00:26:50.563Z,-0.10
2022-10-12T00:27:55.985Z,-0.10
2022-10-12T00:29:00.778Z,-0.09
2022-10-12T00:30:05.195Z,-0.10
2022-10-12T00:31:09.697Z,-0.10
2022-10-12T00:32:13.665Z,-0.11
2022-10-12T00:33:16.692Z,-0.13
2022-10-12T00:34:20.717Z,-0.15
2022-10-12T00:35:23.664Z,-0.16
2022-10-12T00:36:29.206Z,-0.17
2022-10-12T00:37:32.095Z,-0.16
2022-10-12T00:38:36.113Z,-0.17
2022-10-12T00:39:39.065Z,-0.17
2022-10-12T00:40:43.103Z,-0.17
2022-10-12T00:41:47.086Z,-0.15
2022-10-12T00:42:50.086Z,-0.14
2022-10-12T00:43:58.527Z,-0.13
2022-10-12T00:45:01.828Z,-0.14
2022-10-12T00:46:08.504Z,-0.15
2022-10-12T00:47:22.535Z,-0.15
2022-10-12T00:48:26.576Z,-0.15
2022-10-12T00:49:29.714Z,-0.13
2022-10-12T00:50:35.615Z,-0.14
2022-10-12T00:51:39.144Z,-0.15
2022-10-12T00:52:46.492Z,-0.16
2022-10-12T00:53:52.613Z,-0.16
2022-10-12T00:54:57.295Z,-0.18
2022-10-12T00:56:01.315Z,-0.18
2022-10-12T00:57:06.783Z,-0.20
2022-10-12T00:58:09.840Z,-0.19
2022-10-12T00:59:19.216Z,-0.21
2022-10-12T01:00:23.025Z,-0.23
2022-10-12T01:01:27.168Z,-0.27
2022-10-12T01:02:31.027Z,-0.30
2022-10-12T01:03:35.349Z,-0.32
2022-10-12T01:04:38.776Z,-0.32
2022-10-12T01:05:42.996Z,-0.31
2022-10-12T01:06:45.987Z,-0.31
2022-10-12T01:07:50.076Z,-0.32
2022-10-12T01:08:55.100Z,-0.33
2022-10-12T01:09:59.077Z,-0.34
2022-10-12T01:11:02.049Z,-0.36
2022-10-12T01:12:07.157Z,-0.37
2022-10-12T01:13:10.283Z,-0.37
2022-10-12T01:14:15.892Z,-0.38
2022-10-12T01:15:19.236Z,-0.41
2022-10-12T01:16:26.447Z,-0.41
2022-10-12T01:17:36.429Z,-0.40
2022-10-12T01:18:45.657Z,-0.40
2022-10-12T01:20:07.105Z,-0.40
2022-10-12T01:21:17.993Z,-0.40
2022-10-12T01:22:22.657Z,-0.41
2022-10-12T01:24:07.866Z,-0.40
2022-10-12T01:25:22.527Z,-0.43
2022-10-12T01:26:54.774Z,-0.47
2022-10-12T01:28:02.362Z,-0.51
2022-10-12T01:29:20.237Z,-0.50
2022-10-12T01:30:27.267Z,-0.51
2022-10-12T01:31:36.701Z,-0.54
2022-10-12T01:32:48.496Z,-0.55
2022-10-12T01:33:54.359Z,-0.55
2022-10-12T01:35:01.294Z,-0.55
2022-10-12T01:36:08.902Z,-0.53
2022-10-12T01:37:16.045Z,-0.53
2022-10-12T01:38:26.394Z,-0.53
2022-10-12T01:39:32.655Z,-0.55
2022-10-12T01:40:39.121Z,-0.55
2022-10-12T01:41:45.547Z,-0.56
2022-10-12T01:42:50.074Z,-0.56
2022-10-12T01:43:54.674Z,-0.56
2022-10-12T01:45:04.919Z,-0.55
2022-10-12T01:46:42.192Z,-0.52
2022-10-12T01:47:49.791Z,-0.53
2022-10-12T01:48:55.084Z,-0.55
2022-10-12T01:49:59.309Z,-0.57
2022-10-12T01:51:03.514Z,-0.57
2022-10-12T01:52:37.496Z,-0.57
2022-10-12T01:53:45.063Z,-0.58
2022-10-12T01:54:59.337Z,-0.57
2022-10-12T01:56:08.539Z,-0.58
2022-10-12T01:57:18.243Z,-0.59
2022-10-12T01:58:35.264Z,-0.61
2022-10-12T01:59:43.967Z,-0.65
2022-10-12T02:00:54.220Z,-0.67
2022-10-12T02:01:59.232Z,-0.68
2022-10-12T02:03:11.275Z,-0.68
2022-10-12T02:04:19.346Z,-0.65
2022-10-12T02:05:28.857Z,-0.64
2022-10-12T02:06:37.535Z,-0.61
2022-10-12T02:07:43.814Z,-0.61
2022-10-12T02:08:51.534Z,-0.60
2022-10-12T02:09:56.484Z,-0.57
2022-10-12T02:11:05.215Z,-0.57
2022-10-12T02:12:12.845Z,-0.57
2022-10-12T02:13:17.173Z,-0.58
2022-10-12T02:14:22.356Z,-0.58
2022-10-12T02:15:28.078Z,-0.58
2022-10-12T02:16:34.395Z,-0.60
2022-10-12T02:17:39.291Z,-0.58
2022-10-12T02:18:47.369Z,-0.59
2022-10-12T02:19:54.885Z,-0.61
2022-10-12T02:20:59.334Z,-0.64
2022-10-12T02:22:05.968Z,-0.68
2022-10-12T02:23:08.953Z,-0.70
2022-10-12T02:24:13.405Z,-0.70
2022-10-12T02:25:18.366Z,-0.69
2022-10-12T02:26:23.253Z,-0.69
2022-10-12T02:27:27.347Z,-0.68
2022-10-12T02:28:32.471Z,-0.68
2022-10-12T02:29:37.766Z,-0.67
2022-10-12T02:30:51.526Z,-0.68
2022-10-12T02:31:57.553Z,-0.68
2022-10-12T02:33:07.831Z,-0.70
2022-10-12T02:34:15.973Z,-0.70
2022-10-12T02:35:25.867Z,-0.71
2022-10-12T02:36:35.093Z,-0.74
2022-10-12T02:37:42.156Z,-0.75
2022-10-12T02:38:49.006Z,-0.76
2022-10-12T02:39:55.647Z,-0.76
2022-10-12T02:41:01.695Z,-0.75
2022-10-12T02:42:09.225Z,-0.75
2022-10-12T02:43:14.643Z,-0.75
2022-10-12T02:44:22.102Z,-0.75
2022-10-12T02:45:25.565Z,-0.74
2022-10-12T02:46:30.613Z,-0.74
2022-10-12T02:47:34.496Z,-0.74
2022-10-12T02:48:40.657Z,-0.74
2022-10-12T02:49:46.372Z,-0.73
2022-10-12T02:50:52.735Z,-0.73
2022-10-12T02:51:56.336Z,-0.74
2022-10-12T02:53:00.540Z,-0.72
2022-10-12T02:54:04.108Z,-0.71
2022-10-12T02:55:08.645Z,-0.70
2022-10-12T02:56:13.287Z,-0.71
2022-10-12T02:57:17.532Z,-0.71
2022-10-12T02:58:20.885Z,-0.72
2022-10-12T02:59:25.063Z,-0.72
2022-10-12T03:00:27.964Z,-0.71
2022-10-12T03:01:31.967Z,-0.71
2022-10-12T03:02:36.003Z,-0.71
2022-10-12T03:03:39.394Z,-0.71
2022-10-12T03:04:43.485Z,-0.73
2022-10-12T03:05:47.827Z,-0.74
2022-10-12T03:06:51.894Z,-0.75
2022-10-12T03:07:54.847Z,-0.77
2022-10-12T03:08:58.871Z,-0.77
2022-10-12T03:10:01.697Z,-0.76
2022-10-12T03:11:05.918Z,-0.77
2022-10-12T03:12:08.864Z,-0.76
2022-10-12T03:13:12.806Z,-0.77
2022-10-12T03:14:16.986Z,-0.77
2022-10-12T03:15:20.886Z,-0.77
2022-10-12T03:16:24.896Z,-0.77
2022-10-12T03:17:28.794Z,-0.79
2022-10-12T03:18:31.935Z,-0.80
2022-10-12T03:19:35.905Z,-0.80
2022-10-12T03:20:38.803Z,-0.82
2022-10-12T03:21:44.225Z,-0.86
2022-10-12T03:22:48.322Z,-0.88
2022-10-12T03:23:51.224Z,-0.91
2022-10-12T03:24:55.266Z,-0.92
2022-10-12T03:25:58.255Z,-0.91
2022-10-12T03:27:02.374Z,-0.92
2022-10-12T03:28:05.456Z,-0.90
2022-10-12T03:29:09.836Z,-0.90
2022-10-12T03:30:13.595Z,-0.89
2022-10-12T03:31:18.221Z,-0.90
2022-10-12T03:32:21.272Z,-0.91
2022-10-12T03:33:25.513Z,-0.91
2022-10-12T03:34:28.448Z,-0.90
2022-10-12T03:35:32.446Z,-0.90
2022-10-12T03:36:36.443Z,-0.89
2022-10-12T03:37:41.104Z,-0.86
2022-10-12T03:38:45.331Z,-0.84
2022-10-12T03:39:48.213Z,-0.82
2022-10-12T03:40:52.143Z,-0.84
2022-10-12T03:41:55.125Z,-0.88
2022-10-12T03:42:59.125Z,-0.91
2022-10-12T03:44:02.184Z,-0.95
2022-10-12T03:45:06.885Z,-0.96
2022-10-12T03:46:09.784Z,-0.95
2022-10-12T03:47:13.796Z,-0.97
2022-10-12T03:48:16.755Z,-0.95
2022-10-12T03:49:20.825Z,-0.96
2022-10-12T03:50:23.773Z,-0.95
2022-10-12T03:51:27.835Z,-0.96
2022-10-12T03:52:30.760Z,-0.94
2022-10-12T03:53:36.162Z,-0.95
2022-10-12T03:54:39.043Z,-0.95
2022-10-12T03:55:43.106Z,-0.96
2022-10-12T03:56:46.015Z,-0.96
2022-10-12T03:57:49.944Z,-0.95
2022-10-12T03:58:52.875Z,-0.96
2022-10-12T03:59:56.774Z,-0.96
2022-10-12T04:00:59.694Z,-0.96
2022-10-12T04:02:03.698Z,-0.98
2022-10-12T04:03:06.662Z,-0.98
2022-10-12T04:04:11.763Z,-0.99
2022-10-12T04:05:14.777Z,-1.01
2022-10-12T04:06:18.923Z,-1.02
2022-10-12T04:07:21.815Z,-1.02
2022-10-12T04:08:26.979Z,-1.02
2022-10-12T04:09:31.318Z,-1.03
2022-10-12T04:10:36.116Z,-1.03
2022-10-12T04:11:39.049Z,-1.05
2022-10-12T04:12:43.057Z,-1.06
2022-10-12T04:13:46.002Z,-1.08
2022-10-12T04:14:50.061Z,-1.07
2022-10-12T04:15:52.954Z,-1.07
2022-10-12T04:16:56.955Z,-1.06
2022-10-12T04:17:59.855Z,-1.05
2022-10-12T04:19:03.782Z,-1.04
2022-10-12T04:20:07.681Z,-1.03
2022-10-12T04:21:14.891Z,-1.04
2022-10-12T04:22:17.846Z,-1.05
2022-10-12T04:23:21.790Z,-1.05
2022-10-12T04:24:24.756Z,-1.03
2022-10-12T04:25:30.481Z,-1.02
2022-10-12T04:26:34.567Z,-1.01
2022-10-12T04:27:37.621Z,-1.01
2022-10-12T04:28:41.909Z,-1.01
2022-10-12T04:29:44.884Z,-1.02
2022-10-12T04:30:48.903Z,-1.02
2022-10-12T04:31:51.856Z,-1.02
2022-10-12T04:32:55.814Z,-1.02
2022-10-12T04:33:58.735Z,-1.02
2022-10-12T04:35:02.686Z,-1.03
2022-10-12T04:36:05.910Z,-1.02
2022-10-12T04:37:09.857Z,-1.02
2022-10-12T04:38:13.336Z,-1.02
2022-10-12T04:39:17.341Z,-1.01
2022-10-12T04:40:20.288Z,-1.02
2022-10-12T04:41:25.753Z,-1.03
2022-10-12T04:42:28.742Z,-1.02
2022-10-12T04:43:32.774Z,-1.01
2022-10-12T04:44:35.754Z,-1.01
2022-10-12T04:45:39.766Z,-1.00
2022-10-12T04:46:42.649Z,-0.99
2022-10-12T04:47:46.563Z,-1.00
2022-10-12T04:48:49.519Z,-1.01
2022-10-12T04:49:53.516Z,-1.02
2022-10-12T04:50:56.467Z,-1.02
2022-10-12T04:52:00.458Z,-1.02
2022-10-12T04:53:03.497Z,-1.02
2022-10-12T04:54:07.607Z,-1.01
2022-10-12T04:55:10.528Z,-1.02
2022-10-12T04:56:14.457Z,-1.01
2022-10-12T04:57:18.836Z,-0.98
2022-10-12T04:58:22.740Z,-0.99
2022-10-12T04:59:25.813Z,-0.97
2022-10-12T05:00:29.847Z,-0.97
2022-10-12T05:01:32.811Z,-0.96
2022-10-12T05:02:36.855Z,-0.96
2022-10-12T05:03:42.119Z,-0.97
2022-10-12T05:04:46.322Z,-0.98
2022-10-12T05:05:50.333Z,-0.98
2022-10-12T05:06:53.304Z,-0.96
2022-10-12T05:07:57.257Z,-0.96
2022-10-12T05:09:00.152Z,-0.96
2022-10-12T05:10:04.104Z,-0.96
2022-10-12T05:11:07.002Z,-0.95
2022-10-12T05:12:11.056Z,-0.94
2022-10-12T05:13:15.704Z,-0.94
2022-10-12T05:14:19.756Z,-0.94
2022-10-12T05:15:22.694Z,-0.91
2022-10-12T05:16:26.775Z,-0.87
2022-10-12T05:17:29.626Z,-0.84
2022-10-12T05:18:33.645Z,-0.81
2022-10-12T05:19:36.586Z,-0.79
2022-10-12T05:20:40.534Z,-0.78
2022-10-12T05:21:43.432Z,-0.75
2022-10-12T05:22:47.443Z,-0.72
2022-10-12T05:23:51.344Z,-0.68
2022-10-12T05:24:55.332Z,-0.64
2022-10-12T05:25:58.268Z,-0.59
2022-10-12T05:27:03.216Z,-0.57
2022-10-12T05:28:07.077Z,-0.52
2022-10-12T05:29:12.555Z,-0.47
2022-10-12T05:30:15.709Z,-0.40
2022-10-12T05:31:20.067Z,-0.36
2022-10-12T05:32:23.194Z,-0.31
2022-10-12T05:33:27.244Z,-0.28
2022-10-12T05:34:30.327Z,-0.23
2022-10-12T05:35:34.314Z,-0.18
2022-10-12T05:36:37.655Z,-0.14
2022-10-12T05:37:41.692Z,-0.09
2022-10-12T05:38:44.641Z,-0.03
2022-10-12T05:39:49.995Z,0.04
2022-10-12T05:40:57.704Z,0.11
2022-10-12T05:42:04.445Z,0.19
2022-10-12T05:43:07.401Z,0.27
2022-10-12T05:44:12.913Z,0.35
2022-10-12T05:45:15.949Z,0.44
2022-10-12T05:46:20.033Z,0.52
2022-10-12T05:47:23.025Z,0.58
2022-10-12T05:48:27.368Z,0.63
2022-10-12T05:49:31.056Z,0.70
2022-10-12T05:50:35.006Z,0.77
2022-10-12T05:51:38.973Z,0.84
2022-10-12T05:52:42.844Z,0.93
2022-10-12T05:53:45.764Z,1.00
2022-10-12T05:54:49.775Z,1.07
2022-10-12T05:55:54.207Z,1.18
2022-10-12T05:56:58.141Z,1.32
2022-10-12T05:58:01.053Z,1.47
2022-10-12T05:59:05.309Z,1.62
2022-10-12T06:00:10.876Z,1.71
2022-10-12T06:01:15.266Z,1.77
2022-10-12T06:02:19.326Z,1.80
2022-10-12T06:03:26.266Z,1.82
2022-10-12T06:04:30.494Z,1.87
2022-10-12T06:05:33.396Z,1.94
2022-10-12T06:06:37.447Z,2.02
2022-10-12T06:07:40.415Z,2.08
2022-10-12T06:08:44.455Z,2.20
2022-10-12T06:09:49.265Z,2.32
2022-10-12T06:10:54.175Z,2.46
2022-10-12T06:11:57.157Z,2.57
2022-10-12T06:13:01.086Z,2.66
2022-10-12T06:14:05.255Z,2.71
2022-10-12T06:15:10.845Z,2.76
2022-10-12T06:16:14.943Z,2.81
2022-10-12T06:17:17.940Z,2.88
2022-10-12T06:18:22.123Z,2.93
2022-10-12T06:19:25.052Z,2.97
2022-10-12T06:20:29.001Z,3.00
2022-10-12T06:21:34.218Z,3.02
2022-10-12T06:22:38.789Z,3.03
2022-10-12T06:23:42.043Z,3.07
2022-10-12T06:24:46.014Z,3.11
2022-10-12T06:25:49.856Z,3.18
2022-10-12T06:26:53.756Z,3.25
2022-10-12T06:27:56.794Z,3.34
2022-10-12T06:29:01.061Z,3.40
2022-10-12T06:30:04.897Z,3.50
2022-10-12T06:31:10.766Z,3.59
2022-10-12T06:32:13.678Z,3.69
2022-10-12T06:33:17.722Z,3.80
2022-10-12T06:34:21.153Z,3.91
2022-10-12T06:35:25.123Z,4.04
2022-10-12T06:36:28.062Z,4.17
2022-10-12T06:37:49.162Z,4.29
2022-10-12T06:38:54.018Z,4.45
2022-10-12T06:39:57.860Z,4.59
2022-10-12T06:41:01.845Z,4.71
2022-10-12T06:42:05.873Z,4.80
2022-10-12T06:43:08.836Z,4.87
2022-10-12T06:44:12.826Z,4.92
2022-10-12T06:45:16.282Z,4.96
2022-10-12T06:46:21.660Z,5.04
2022-10-12T06:47:25.705Z,5.09
2022-10-12T06:48:29.113Z,5.15
2022-10-12T06:49:33.055Z,5.25
2022-10-12T06:50:36.441Z,5.38
2022-10-12T06:51:40.392Z,5.52
2022-10-12T06:52:43.923Z,5.63
2022-10-12T06:53:47.955Z,5.78
2022-10-12T06:54:51.924Z,5.90
2022-10-12T06:55:55.071Z,5.99
2022-10-12T06:56:59.027Z,6.07
2022-10-12T06:58:02.007Z,6.14
2022-10-12T06:59:06.077Z,6.23
2022-10-12T07:00:10.352Z,6.34
2022-10-12T07:01:14.578Z,6.44
2022-10-12T07:02:19.045Z,6.53
2022-10-12T07:03:23.016Z,6.64
2022-10-12T07:04:25.995Z,6.75
2022-10-12T07:05:29.957Z,6.86
2022-10-12T07:06:34.577Z,6.92
2022-10-12T07:07:38.246Z,7.01
2022-10-12T07:08:43.157Z,7.11
2022-10-12T07:09:46.124Z,7.20
2022-10-12T07:10:50.235Z,7.25
2022-10-12T07:11:53.224Z,7.31
2022-10-12T07:12:57.419Z,7.36
2022-10-12T07:14:00.326Z,7.38
2022-10-12T07:15:04.438Z,7.42
2022-10-12T07:16:08.304Z,7.47
2022-10-12T07:17:12.354Z,7.54
2022-10-12T07:18:16.725Z,7.61
2022-10-12T07:19:21.052Z,7.63
2022-10-12T07:20:25.345Z,7.67
2022-10-12T07:21:29.424Z,7.72
2022-10-12T07:22:32.545Z,7.77
2022-10-12T07:23:42.407Z,7.86
2022-10-12T07:24:48.394Z,7.96
2022-10-12T07:25:52.646Z,8.03
2022-10-12T07:26:55.718Z,8.12
2022-10-12T07:27:59.742Z,8.22
2022-10-12T07:29:03.805Z,8.34
2022-10-12T07:30:08.056Z,8.43
2022-10-12T07:31:12.316Z,8.50
2022-10-12T07:32:15.336Z,8.57
2022-10-12T07:33:21.179Z,8.65
2022-10-12T07:34:24.096Z,8.69
2022-10-12T07:35:28.115Z,8.71
2022-10-12T07:36:54.575Z,8.71
2022-10-12T07:37:56.077Z,8.68
2022-10-12T07:38:59.025Z,8.69
2022-10-12T07:40:03.197Z,8.72
2022-10-12T07:41:06.417Z,8.71
2022-10-12T07:42:11.916Z,8.69
2022-10-12T07:43:16.755Z,8.67
2022-10-12T07:44:21.229Z,8.68
2022-10-12T07:45:24.158Z,8.70
2022-10-12T07:46:28.270Z,8.71
2022-10-12T07:47:31.208Z,8.73
2022-10-12T07:48:36.715Z,8.75
2022-10-12T07:49:39.641Z,8.75
2022-10-12T07:50:43.599Z,8.75
2022-10-12T07:51:47.580Z,8.75
2022-10-12T07:52:51.976Z,8.74
2022-10-12T07:53:56.084Z,8.72
2022-10-12T07:54:59.176Z,8.73
2022-10-12T07:56:03.617Z,8.69
2022-10-12T07:57:08.778Z,8.64
2022-10-12T07:58:13.255Z,8.61
2022-10-12T07:59:17.323Z,8.58
2022-10-12T08:00:22.349Z,8.58
2022-10-12T08:01:28.026Z,8.57
2022-10-12T08:02:31.387Z,8.55
2022-10-12T08:03:36.935Z,8.57
2022-10-12T08:04:40.887Z,8.58
2022-10-12T08:05:43.896Z,8.61
2022-10-12T08:06:48.011Z,8.65
2022-10-12T08:07:52.334Z,8.68
2022-10-12T08:08:56.634Z,8.71
2022-10-12T08:10:00.644Z,8.74
2022-10-12T08:11:03.914Z,8.78
2022-10-12T08:12:08.533Z,8.82
2022-10-12T08:13:12.502Z,8.87
2022-10-12T08:14:17.384Z,8.90
2022-10-12T08:15:20.534Z,8.93
2022-10-12T08:16:25.323Z,9.00
2022-10-12T08:17:29.344Z,9.05
2022-10-12T08:18:33.567Z,9.11
2022-10-12T08:19:38.966Z,9.16
2022-10-12T08:20:42.925Z,9.22
2022-10-12T08:21:47.013Z,9.26
2022-10-12T08:22:50.020Z,9.32
2022-10-12T08:23:54.058Z,9.36
2022-10-12T08:24:58.044Z,9.40
2022-10-12T08:26:01.284Z,9.45
2022-10-12T08:27:05.388Z,9.51
2022-10-12T08:28:08.375Z,9.56
2022-10-12T08:29:12.645Z,9.64
2022-10-12T08:30:15.747Z,9.71
2022-10-12T08:31:19.803Z,9.77
2022-10-12T08:32:22.894Z,9.84
2022-10-12T08:33:30.068Z,9.91
2022-10-12T08:34:34.743Z,9.99
2022-10-12T08:35:41.185Z,10.10
2022-10-12T08:36:45.208Z,10.16
2022-10-12T08:37:48.307Z,10.24
2022-10-12T08:38:54.247Z,10.30
2022-10-12T08:40:00.895Z,10.36
2022-10-12T08:41:19.251Z,10.44
2022-10-12T08:42:37.759Z,10.50
2022-10-12T08:43:54.273Z,10.56
2022-10-12T08:45:21.730Z,10.62
2022-10-12T08:46:26.414Z,10.66
2022-10-12T08:47:36.547Z,10.74
2022-10-12T08:48:47.088Z,10.82
2022-10-12T08:49:51.675Z,10.88
2022-10-12T08:50:58.493Z,10.95
2022-10-12T08:52:06.518Z,11.05
2022-10-12T08:53:15.732Z,11.12
2022-10-12T08:54:22.557Z,11.17
2022-10-12T08:55:33.965Z,11.24
2022-10-12T08:56:40.417Z,11.32
2022-10-12T08:57:47.607Z,11.41
2022-10-12T08:58:54.913Z,11.50
2022-10-12T08:59:59.370Z,11.56
2022-10-12T09:01:16.542Z,11.66
2022-10-12T09:02:40.024Z,11.72
2022-10-12T09:03:51.034Z,11.77
2022-10-12T09:04:58.585Z,11.84
2022-10-12T09:06:10.797Z,11.91
2022-10-12T09:07:17.893Z,12.00
2022-10-12T09:08:29.762Z,12.11
2022-10-12T09:09:44.197Z,12.22
2022-10-12T09:10:53.265Z,12.34
2022-10-12T09:12:06.152Z,12.51
2022-10-12T09:13:18.792Z,12.67
2022-10-12T09:14:24.616Z,12.82
2022-10-12T09:15:30.960Z,12.99
2022-10-12T09:16:38.314Z,13.19
2022-10-12T09:17:44.985Z,13.40
2022-10-12T09:18:52.721Z,13.58
2022-10-12T09:20:03.236Z,13.80
2022-10-12T09:21:11.764Z,14.01
2022-10-12T09:22:19.386Z,14.17
2022-10-12T09:23:26.545Z,14.32
2022-10-12T09:24:32.555Z,14.47
2022-10-12T09:25:36.544Z,14.59
2022-10-12T09:26:40.724Z,14.70
2022-10-12T09:27:46.120Z,14.74
2022-10-12T09:28:53.529Z,14.77
2022-10-12T09:30:01.105Z,14.75
2022-10-12T09:31:12.664Z,14.73
2022-10-12T09:32:37.807Z,14.66
2022-10-12T09:33:45.574Z,14.59
2022-10-12T09:34:50.375Z,14.59
2022-10-12T09:35:54.664Z,14.59
2022-10-12T09:37:00.222Z,14.58
2022-10-12T09:38:04.281Z,14.54
2022-10-12T09:39:13.664Z,14.48
2022-10-12T09:40:23.198Z,14.39
2022-10-12T09:41:29.019Z,14.29
2022-10-12T09:42:32.784Z,14.20
2022-10-12T09:43:36.824Z,14.13
2022-10-12T09:44:41.704Z,14.10
2022-10-12T09:45:45.825Z,14.10
2022-10-12T09:46:52.895Z,14.11
2022-10-12T09:48:14.809Z,14.11
2022-10-12T09:49:19.453Z,14.08
2022-10-12T09:50:40.721Z,14.07
2022-10-12T09:51:44.985Z,14.04
2022-10-12T09:52:50.588Z,14.03
2022-10-12T09:53:57.655Z,14.01
2022-10-12T09:55:05.421Z,13.97
2022-10-12T09:56:14.648Z,13.96
2022-10-12T09:57:20.456Z,13.93
2022-10-12T09:58:24.865Z,13.89
2022-10-12T09:59:30.884Z,13.87
2022-10-12T10:00:35.119Z,13.80
2022-10-12T10:01:40.392Z,13.74
2022-10-12T10:02:49.352Z,13.68
2022-10-12T10:04:09.984Z,13.65
2022-10-12T10:05:25.344Z,13.57
2022-10-12T10:06:28.362Z,13.55
2022-10-12T10:07:34.496Z,13.57
2022-10-12T10:08:43.305Z,13.64
2022-10-12T10:09:48.207Z,13.70
2022-10-12T10:10:52.775Z,13.74
2022-10-12T10:11:57.162Z,13.77
2022-10-12T10:13:03.955Z,13.79
2022-10-12T10:14:07.962Z,13.80
2022-10-12T10:15:19.996Z,13.80
2022-10-12T10:16:26.226Z,13.81
2022-10-12T10:17:32.945Z,13.88
2022-10-12T10:18:37.796Z,13.95
2022-10-12T10:19:41.831Z,14.01
2022-10-12T10:20:51.313Z,14.10
2022-10-12T10:21:56.584Z,14.17
2022-10-12T10:23:00.278Z,14.24
2022-10-12T10:24:07.365Z,14.30
2022-10-12T10:25:20.774Z,14.36
2022-10-12T10:26:25.489Z,14.41
2022-10-12T10:27:34.540Z,14.44
2022-10-12T10:28:40.709Z,14.42
2022-10-12T10:29:45.659Z,14.40
2022-10-12T10:30:58.850Z,14.45
2022-10-12T10:32:12.824Z,14.46
2022-10-12T10:33:19.047Z,14.45
2022-10-12T10:34:24.295Z,14.47
2022-10-12T10:35:27.425Z,14.46
2022-10-12T10:36:31.794Z,14.43
2022-10-12T10:37:35.743Z,14.36
2022-10-12T10:38:55.525Z,14.25
2022-10-12T10:40:01.636Z,14.15
2022-10-12T10:41:08.005Z,14.08
2022-10-12T10:42:11.957Z,14.00
2022-10-12T10:43:28.863Z,13.93
2022-10-12T10:44:33.251Z,13.90
2022-10-12T10:45:49.905Z,13.86
2022-10-12T10:46:54.915Z,13.78
2022-10-12T10:48:01.512Z,13.76
2022-10-12T10:49:08.125Z,13.73
2022-10-12T10:50:26.004Z,13.69
2022-10-12T10:51:48.533Z,13.63
2022-10-12T10:52:56.963Z,13.67
2022-10-12T10:54:15.091Z,13.84
2022-10-12T10:55:24.253Z,13.96
2022-10-12T10:56:31.406Z,14.04
2022-10-12T10:57:35.263Z,14.07
2022-10-12T10:58:42.804Z,14.07
2022-10-12T10:59:50.654Z,14.04
2022-10-12T11:00:57.755Z,14.03
2022-10-12T11:02:04.101Z,14.00
2022-10-12T11:03:12.937Z,13.98
2022-10-12T11:04:20.746Z,13.92
2022-10-12T11:05:28.974Z,13.87
2022-10-12T11:06:37.774Z,13.80
2022-10-12T11:07:44.729Z,13.76
2022-10-12T11:08:51.319Z,13.72
2022-10-12T11:09:55.987Z,13.68
2022-10-12T11:11:04.629Z,13.69
2022-10-12T11:12:12.544Z,13.76
2022-10-12T11:13:18.277Z,13.76
2022-10-12T11:14:25.263Z,13.74
2022-10-12T11:15:32.757Z,13.73
2022-10-12T11:16:39.387Z,13.74
2022-10-12T11:17:46.822Z,13.84
2022-10-12T11:18:54.042Z,13.93
2022-10-12T11:20:07.522Z,14.00
2022-10-12T11:21:14.923Z,14.09
2022-10-12T11:22:20.838Z,14.18
2022-10-12T11:23:33.566Z,14.29
2022-10-12T11:24:42.509Z,14.42
2022-10-12T11:26:05.057Z,14.57
2022-10-12T11:27:13.413Z,14.71
2022-10-12T11:28:16.976Z,14.82
2022-10-12T11:29:21.680Z,14.96
2022-10-12T11:30:27.313Z,15.10
2022-10-12T11:31:34.243Z,15.21
2022-10-12T11:32:38.897Z,15.30
2022-10-12T11:33:44.645Z,15.36
2022-10-12T11:34:53.123Z,15.45
2022-10-12T11:35:59.169Z,15.52
2022-10-12T11:37:20.640Z,15.58
2022-10-12T11:38:28.844Z,15.70
2022-10-12T11:39:36.406Z,15.79
2022-10-12T11:41:31.047Z,15.86
2022-10-12T11:42:22.700Z,15.91
2022-10-12T11:43:29.945Z,15.99
2022-10-12T11:44:39.315Z,16.05
2022-10-12T11:45:47.441Z,16.04
2022-10-12T11:46:56.685Z,16.02
2022-10-12T11:48:02.707Z,16.03
2022-10-12T11:49:10.806Z,16.07
2022-10-12T11:50:25.335Z,16.17
2022-10-12T11:51:29.465Z,16.34
2022-10-12T11:52:39.138Z,16.50
2022-10-12T11:53:49.914Z,16.63
2022-10-12T11:54:59.096Z,16.73
2022-10-12T11:56:09.092Z,16.90
2022-10-12T11:57:18.015Z,16.99
2022-10-12T11:58:36.494Z,17.07
2022-10-12T11:59:50.144Z,17.21
2022-10-12T12:01:29.693Z,17.28
2022-10-12T12:02:35.755Z,17.27
2022-10-12T12:04:17.138Z,17.32
2022-10-12T12:05:25.556Z,17.33
2022-10-12T12:06:46.346Z,17.27
2022-10-12T12:07:51.340Z,17.23
2022-10-12T12:08:58.315Z,17.26
2022-10-12T12:10:02.257Z,17.26
2022-10-12T12:11:18.445Z,17.25
2022-10-12T12:12:24.695Z,17.33
2022-10-12T12:13:28.775Z,17.38
2022-10-12T12:15:04.823Z,17.37
2022-10-12T12:16:35.791Z,17.17
2022-10-12T12:17:39.795Z,17.00
2022-10-12T12:19:19.016Z,16.82
2022-10-12T12:20:55.924Z,16.59
2022-10-12T12:22:19.912Z,16.34
2022-10-12T12:23:27.124Z,16.19
2022-10-12T12:24:30.021Z,16.08
2022-10-12T12:25:34.534Z,16.00
2022-10-12T12:26:37.615Z,15.92
2022-10-12T12:27:46.250Z,15.82
2022-10-12T12:28:50.861Z,15.71
2022-10-12T12:29:55.353Z,15.60
2022-10-12T12:31:01.716Z,15.53
2022-10-12T12:32:04.684Z,15.47
2022-10-12T12:33:29.463Z,15.40
2022-10-12T12:34:32.486Z,15.32
2022-10-12T12:35:39.707Z,15.27
2022-10-12T12:36:45.099Z,15.26
2022-10-12T12:37:49.790Z,15.40
2022-10-12T12:38:54.094Z,15.68
2022-10-12T12:39:58.634Z,16.05
2022-10-12T12:41:05.474Z,16.48
2022-10-12T12:42:10.645Z,16.96
2022-10-12T12:43:34.417Z,17.49
2022-10-12T12:44:41.882Z,17.91
2022-10-12T12:45:54.855Z,18.30
2022-10-12T12:49:00.747Z,19.30
2022-10-12T12:50:26.776Z,19.53
2022-10-12T12:51:40.580Z,19.76
2022-10-12T12:52:44.802Z,19.81
2022-10-12T12:53:50.175Z,19.88
2022-10-12T12:55:20.155Z,20.07
2022-10-12T12:56:26.595Z,20.18
2022-10-12T12:57:39.895Z,20.32
2022-10-12T12:58:58.393Z,20.46
2022-10-12T13:00:14.409Z,20.61
2022-10-12T13:01:42.889Z,20.79
2022-10-12T13:03:19.181Z,21.01
2022-10-12T13:04:41.436Z,21.08
2022-10-12T13:06:22.316Z,20.90
2022-10-12T13:07:41.194Z,20.66
2022-10-12T13:08:56.364Z,20.48
2022-10-12T13:10:11.367Z,20.14
2022-10-12T13:11:41.954Z,19.82
2022-10-12T13:13:03.228Z,19.75
2022-10-12T13:14:20.095Z,19.66
2022-10-12T13:15:31.362Z,19.42
2022-10-12T13:18:47.030Z,18.65
2022-10-12T13:19:51.976Z,18.28
2022-10-12T13:20:56.315Z,18.00
2022-10-12T13:22:05.434Z,17.73
2022-10-12T13:23:13.486Z,17.48
2022-10-12T13:24:24.904Z,17.25
2022-10-12T13:25:31.835Z,17.02
2022-10-12T13:26:36.971Z,16.80
2022-10-12T13:27:43.227Z,16.59
2022-10-12T13:28:47.515Z,16.40
2022-10-12T13:29:57.133Z,16.24
2022-10-12T13:31:03.055Z,16.07
2022-10-12T13:32:25.307Z,15.92
2022-10-12T13:33:32.534Z,15.78
2022-10-12T13:34:40.115Z,15.76
2022-10-12T13:35:47.835Z,15.79
2022-10-12T13:36:55.523Z,15.75
2022-10-12T13:38:04.579Z,15.69
2022-10-12T13:39:17.163Z,15.66
2022-10-12T13:40:31.327Z,15.60
2022-10-12T13:41:36.318Z,15.54
2022-10-12T13:42:39.484Z,15.51
2022-10-12T13:43:46.574Z,15.49
2022-10-12T13:44:52.592Z,15.45
2022-10-12T13:45:56.150Z,15.39
2022-10-12T13:47:04.431Z,15.33
2022-10-12T13:48:25.631Z,15.26
2022-10-12T13:49:44.434Z,15.26
2022-10-12T13:50:54.648Z,15.23
2022-10-12T13:52:00.830Z,15.20
2022-10-12T13:53:12.691Z,15.32
2022-10-12T13:54:19.156Z,15.55
2022-10-12T13:55:26.954Z,15.80
2022-10-12T13:56:31.584Z,16.06
2022-10-12T13:57:40.897Z,16.25
2022-10-12T13:58:44.294Z,16.33
2022-10-12T13:59:49.145Z,16.35
2022-10-12T14:00:53.539Z,16.38
2022-10-12T14:02:01.003Z,16.36
2022-10-12T14:03:07.616Z,16.37
2022-10-12T14:04:11.514Z,16.47
2022-10-12T14:05:18.494Z,16.54
2022-10-12T14:06:28.457Z,16.60
2022-10-12T14:07:35.130Z,16.64
2022-10-12T14:08:38.423Z,16.72
2022-10-12T14:09:45.604Z,16.86
2022-10-12T14:10:49.774Z,17.04
2022-10-12T14:11:55.066Z,17.16
2022-10-12T14:12:58.257Z,17.28
2022-10-12T14:14:02.912Z,17.36
2022-10-12T14:15:07.427Z,17.38
2022-10-12T14:16:14.490Z,17.43
2022-10-12T14:17:19.564Z,17.48
2022-10-12T14:18:36.105Z,17.48
2022-10-12T14:19:47.051Z,17.52
2022-10-12T14:20:51.338Z,17.58
2022-10-12T14:21:57.135Z,17.70
2022-10-12T14:23:02.407Z,17.80
2022-10-12T14:24:09.029Z,17.92
2022-10-12T14:25:17.691Z,18.05
2022-10-12T14:26:29.456Z,18.24
2022-10-12T14:27:35.706Z,18.42
2022-10-12T14:28:40.516Z,18.52
2022-10-12T14:29:47.105Z,18.58
2022-10-12T14:30:52.226Z,18.66